CheckWX is a tool to help pilots better visualize weather data.  It is not intended as a substitute for an official pre-flight weather briefing.

18:36:32 UTC

HTKJ METAR
Kilimanjaro International Airport
Arusha, Tanzania
Current

37 mins ago

HTKJ 221800Z 10015KT 9999 -RA BKN028 23/20 Q1014 NOSIG
Observed
Feb-22 @ 18:00 UTC
Wind
  • 100° at 15 KTS
Visibility
10,000+ meters
Flight Rules
MVFR
Conditions
Light Rain
Cloud Levels
  • Broken at 2,800' AGL
Temperature
23°C / 73°F
Dewpoint
20°C / 68°F
Humidity
83%
Altimeter
29.94" Hg
Pressure
1013.92 hPa
Previous

2 hours ago

HTKJ 221700Z 09018KT 9999 FEW036CB SCT037 28/16 Q1013 NOSIG
Observed
Feb-22 @ 17:00 UTC
Wind
  • 090° at 18 KTS
Visibility
10,000+ meters
Flight Rules
VFR
Cloud Levels
  • Few at 3,600' AGL
  • Scattered at 3,700' AGL
Temperature
28°C / 82°F
Dewpoint
16°C / 61°F
Humidity
48%
Altimeter
29.91" Hg
Pressure
1012.92 hPa
Previous

3 hours ago

HTKJ 221600Z 09010KT 9999 FEW039CB SCT040 29/16 Q1012 NOSIG
Observed
Feb-22 @ 16:00 UTC
Wind
  • 090° at 10 KTS
Visibility
10,000+ meters
Flight Rules
VFR
Cloud Levels
  • Few at 3,900' AGL
  • Scattered at 4,000' AGL
Temperature
29°C / 84°F
Dewpoint
16°C / 61°F
Humidity
45%
Altimeter
29.88" Hg
Pressure
1011.92 hPa